sensor_id;sensor_type;location;lat;lon;timestamp;P1;durP1;ratioP1;P2;durP2;ratioP2
32172;SDS011;18679;45.190;5.722;2022-07-10T00:00:39;4.28;;;1.67;;
32172;SDS011;18679;45.190;5.722;2022-07-10T00:03:41;18.63;;;2.33;;
32172;SDS011;18679;45.190;5.722;2022-07-10T00:06:44;10.40;;;2.00;;
32172;SDS011;18679;45.190;5.722;2022-07-10T00:09:47;8.07;;;1.77;;
32172;SDS011;18679;45.190;5.722;2022-07-10T00:12:48;2.78;;;1.52;;
32172;SDS011;18679;45.190;5.722;2022-07-10T00:15:50;4.35;;;1.88;;
32172;SDS011;18679;45.190;5.722;2022-07-10T00:18:51;5.30;;;1.98;;
32172;SDS011;18679;45.190;5.722;2022-07-10T00:21:52;8.35;;;2.10;;
32172;SDS011;18679;45.190;5.722;2022-07-10T00:24:53;3.08;;;1.40;;
32172;SDS011;18679;45.190;5.722;2022-07-10T00:27:54;4.50;;;1.60;;
32172;SDS011;18679;45.190;5.722;2022-07-10T00:30:55;9.68;;;2.30;;
32172;SDS011;18679;45.190;5.722;2022-07-10T00:33:56;7.82;;;1.65;;
32172;SDS011;18679;45.190;5.722;2022-07-10T00:36:58;4.00;;;1.85;;
32172;SDS011;18679;45.190;5.722;2022-07-10T00:39:59;2.15;;;1.75;;
32172;SDS011;18679;45.190;5.722;2022-07-10T00:43:00;1.70;;;1.45;;
32172;SDS011;18679;45.190;5.722;2022-07-10T00:46:00;4.63;;;1.67;;
32172;SDS011;18679;45.190;5.722;2022-07-10T00:49:02;3.17;;;1.80;;
32172;SDS011;18679;45.190;5.722;2022-07-10T00:52:04;6.25;;;1.90;;
32172;SDS011;18679;45.190;5.722;2022-07-10T00:55:07;4.10;;;1.75;;
32172;SDS011;18679;45.190;5.722;2022-07-10T00:58:10;4.35;;;1.63;;
32172;SDS011;18679;45.190;5.722;2022-07-10T01:01:13;5.53;;;1.67;;
32172;SDS011;18679;45.190;5.722;2022-07-10T01:04:15;4.70;;;1.30;;
32172;SDS011;18679;45.190;5.722;2022-07-10T01:07:17;3.08;;;1.70;;
32172;SDS011;18679;45.190;5.722;2022-07-10T01:10:18;3.55;;;1.50;;
32172;SDS011;18679;45.190;5.722;2022-07-10T01:13:19;3.67;;;1.88;;
32172;SDS011;18679;45.190;5.722;2022-07-10T01:16:21;6.15;;;1.85;;
32172;SDS011;18679;45.190;5.722;2022-07-10T01:19:22;3.42;;;1.30;;
32172;SDS011;18679;45.190;5.722;2022-07-10T01:22:24;3.72;;;1.40;;
32172;SDS011;18679;45.190;5.722;2022-07-10T01:25:25;3.65;;;1.58;;
32172;SDS011;18679;45.190;5.722;2022-07-10T01:28:26;3.95;;;1.95;;
32172;SDS011;18679;45.190;5.722;2022-07-10T01:31:28;7.78;;;1.88;;
32172;SDS011;18679;45.190;5.722;2022-07-10T01:34:29;5.30;;;1.70;;
32172;SDS011;18679;45.190;5.722;2022-07-10T01:37:31;10.85;;;1.90;;
32172;SDS011;18679;45.190;5.722;2022-07-10T01:40:32;7.40;;;1.90;;
32172;SDS011;18679;45.190;5.722;2022-07-10T01:43:34;2.33;;;1.52;;
32172;SDS011;18679;45.190;5.722;2022-07-10T01:46:42;3.63;;;1.38;;
32172;SDS011;18679;45.190;5.722;2022-07-10T01:49:47;6.68;;;1.85;;
32172;SDS011;18679;45.190;5.722;2022-07-10T01:52:48;3.22;;;1.75;;
32172;SDS011;18679;45.190;5.722;2022-07-10T01:55:49;5.90;;;1.75;;
32172;SDS011;18679;45.190;5.722;2022-07-10T01:58:50;7.25;;;1.95;;
32172;SDS011;18679;45.190;5.722;2022-07-10T02:01:51;4.85;;;1.73;;
32172;SDS011;18679;45.190;5.722;2022-07-10T02:04:52;2.35;;;1.70;;
32172;SDS011;18679;45.190;5.722;2022-07-10T02:07:53;10.30;;;1.77;;
32172;SDS011;18679;45.190;5.722;2022-07-10T02:10:54;6.10;;;1.70;;
32172;SDS011;18679;45.190;5.722;2022-07-10T02:13:55;6.30;;;1.30;;
32172;SDS011;18679;45.190;5.722;2022-07-10T02:16:56;8.32;;;1.70;;
32172;SDS011;18679;45.190;5.722;2022-07-10T02:19:57;5.57;;;1.90;;
32172;SDS011;18679;45.190;5.722;2022-07-10T02:22:58;3.88;;;1.60;;
32172;SDS011;18679;45.190;5.722;2022-07-10T02:25:59;5.22;;;1.52;;
32172;SDS011;18679;45.190;5.722;2022-07-10T02:29:00;6.32;;;1.90;;
32172;SDS011;18679;45.190;5.722;2022-07-10T02:32:02;5.03;;;1.50;;
32172;SDS011;18679;45.190;5.722;2022-07-10T02:35:03;6.60;;;1.63;;
32172;SDS011;18679;45.190;5.722;2022-07-10T02:38:05;2.88;;;1.63;;
32172;SDS011;18679;45.190;5.722;2022-07-10T02:41:06;2.78;;;1.48;;
32172;SDS011;18679;45.190;5.722;2022-07-10T02:44:07;4.53;;;1.48;;
32172;SDS011;18679;45.190;5.722;2022-07-10T02:47:08;5.82;;;1.60;;
32172;SDS011;18679;45.190;5.722;2022-07-10T02:50:09;3.40;;;1.70;;
32172;SDS011;18679;45.190;5.722;2022-07-10T02:53:10;2.28;;;1.48;;
32172;SDS011;18679;45.190;5.722;2022-07-10T02:56:11;5.68;;;1.40;;
32172;SDS011;18679;45.190;5.722;2022-07-10T02:59:12;5.85;;;2.15;;
32172;SDS011;18679;45.190;5.722;2022-07-10T03:02:13;3.15;;;1.55;;
32172;SDS011;18679;45.190;5.722;2022-07-10T03:05:15;3.70;;;1.30;;
32172;SDS011;18679;45.190;5.722;2022-07-10T03:08:16;4.20;;;1.55;;
32172;SDS011;18679;45.190;5.722;2022-07-10T03:11:17;2.63;;;1.63;;
32172;SDS011;18679;45.190;5.722;2022-07-10T03:14:18;4.63;;;1.92;;
32172;SDS011;18679;45.190;5.722;2022-07-10T03:17:19;5.75;;;1.70;;
32172;SDS011;18679;45.190;5.722;2022-07-10T03:20:20;2.13;;;1.55;;
32172;SDS011;18679;45.190;5.722;2022-07-10T03:23:22;6.03;;;1.75;;
32172;SDS011;18679;45.190;5.722;2022-07-10T03:26:23;3.20;;;1.40;;
32172;SDS011;18679;45.190;5.722;2022-07-10T03:29:24;4.18;;;1.40;;
32172;SDS011;18679;45.190;5.722;2022-07-10T03:32:25;4.95;;;1.50;;
32172;SDS011;18679;45.190;5.722;2022-07-10T03:35:26;1.65;;;1.30;;
32172;SDS011;18679;45.190;5.722;2022-07-10T03:38:27;2.13;;;1.55;;
32172;SDS011;18679;45.190;5.722;2022-07-10T03:41:28;5.38;;;1.30;;
32172;SDS011;18679;45.190;5.722;2022-07-10T03:44:29;2.55;;;1.85;;
32172;SDS011;18679;45.190;5.722;2022-07-10T03:47:30;1.80;;;1.10;;
32172;SDS011;18679;45.190;5.722;2022-07-10T03:50:32;4.90;;;1.50;;
32172;SDS011;18679;45.190;5.722;2022-07-10T03:53:34;1.88;;;1.27;;
32172;SDS011;18679;45.190;5.722;2022-07-10T03:56:35;3.33;;;1.55;;
32172;SDS011;18679;45.190;5.722;2022-07-10T03:59:54;4.00;;;1.63;;
32172;SDS011;18679;45.190;5.722;2022-07-10T04:02:56;1.50;;;1.40;;
32172;SDS011;18679;45.190;5.722;2022-07-10T04:05:58;1.45;;;1.35;;
32172;SDS011;18679;45.190;5.722;2022-07-10T04:08:59;3.70;;;1.48;;
32172;SDS011;18679;45.190;5.722;2022-07-10T04:12:00;3.20;;;1.55;;
32172;SDS011;18679;45.190;5.722;2022-07-10T04:15:01;3.20;;;1.52;;
32172;SDS011;18679;45.190;5.722;2022-07-10T04:18:02;3.70;;;1.50;;
32172;SDS011;18679;45.190;5.722;2022-07-10T04:21:03;9.98;;;1.77;;
32172;SDS011;18679;45.190;5.722;2022-07-10T04:24:04;3.78;;;1.52;;
32172;SDS011;18679;45.190;5.722;2022-07-10T04:27:05;3.03;;;1.60;;
32172;SDS011;18679;45.190;5.722;2022-07-10T04:30:07;6.10;;;1.60;;
32172;SDS011;18679;45.190;5.722;2022-07-10T04:33:08;5.93;;;3.35;;
32172;SDS011;18679;45.190;5.722;2022-07-10T04:36:09;9.10;;;3.75;;
32172;SDS011;18679;45.190;5.722;2022-07-10T04:39:10;4.30;;;3.20;;
32172;SDS011;18679;45.190;5.722;2022-07-10T04:42:11;7.25;;;3.28;;
32172;SDS011;18679;45.190;5.722;2022-07-10T04:45:13;4.28;;;2.05;;
32172;SDS011;18679;45.190;5.722;2022-07-10T04:48:14;4.78;;;1.77;;
32172;SDS011;18679;45.190;5.722;2022-07-10T04:51:15;2.22;;;1.95;;
32172;SDS011;18679;45.190;5.722;2022-07-10T04:54:16;3.97;;;2.03;;
32172;SDS011;18679;45.190;5.722;2022-07-10T04:57:17;3.05;;;1.60;;
32172;SDS011;18679;45.190;5.722;2022-07-10T05:00:18;4.35;;;1.80;;
32172;SDS011;18679;45.190;5.722;2022-07-10T05:03:19;6.15;;;1.90;;
32172;SDS011;18679;45.190;5.722;2022-07-10T05:06:20;7.05;;;1.80;;
32172;SDS011;18679;45.190;5.722;2022-07-10T05:09:21;4.68;;;1.58;;
32172;SDS011;18679;45.190;5.722;2022-07-10T05:12:22;2.45;;;1.40;;
32172;SDS011;18679;45.190;5.722;2022-07-10T05:15:23;2.65;;;1.60;;
32172;SDS011;18679;45.190;5.722;2022-07-10T05:18:24;7.45;;;1.73;;
32172;SDS011;18679;45.190;5.722;2022-07-10T05:21:25;4.05;;;1.50;;
32172;SDS011;18679;45.190;5.722;2022-07-10T05:24:26;4.72;;;1.88;;
32172;SDS011;18679;45.190;5.722;2022-07-10T05:27:27;4.63;;;1.90;;
32172;SDS011;18679;45.190;5.722;2022-07-10T05:30:28;6.22;;;1.80;;
32172;SDS011;18679;45.190;5.722;2022-07-10T05:33:29;2.63;;;1.55;;
32172;SDS011;18679;45.190;5.722;2022-07-10T05:36:32;5.75;;;3.10;;
32172;SDS011;18679;45.190;5.722;2022-07-10T05:39:33;5.50;;;2.00;;
32172;SDS011;18679;45.190;5.722;2022-07-10T05:42:34;10.13;;;2.65;;
32172;SDS011;18679;45.190;5.722;2022-07-10T05:45:35;6.32;;;1.88;;
32172;SDS011;18679;45.190;5.722;2022-07-10T05:48:36;2.65;;;1.95;;
32172;SDS011;18679;45.190;5.722;2022-07-10T05:51:38;8.38;;;2.60;;
32172;SDS011;18679;45.190;5.722;2022-07-10T05:54:39;3.45;;;2.20;;
32172;SDS011;18679;45.190;5.722;2022-07-10T05:57:40;2.35;;;1.73;;
32172;SDS011;18679;45.190;5.722;2022-07-10T06:00:42;4.25;;;1.75;;
32172;SDS011;18679;45.190;5.722;2022-07-10T06:03:44;3.38;;;1.83;;
32172;SDS011;18679;45.190;5.722;2022-07-10T06:06:45;4.75;;;2.00;;
32172;SDS011;18679;45.190;5.722;2022-07-10T06:09:47;5.00;;;2.10;;
32172;SDS011;18679;45.190;5.722;2022-07-10T06:12:48;6.03;;;1.88;;
32172;SDS011;18679;45.190;5.722;2022-07-10T06:15:49;4.13;;;1.80;;
32172;SDS011;18679;45.190;5.722;2022-07-10T06:18:50;8.85;;;1.83;;
32172;SDS011;18679;45.190;5.722;2022-07-10T06:21:51;5.22;;;1.98;;
32172;SDS011;18679;45.190;5.722;2022-07-10T06:25:12;3.08;;;1.75;;
32172;SDS011;18679;45.190;5.722;2022-07-10T06:28:14;2.75;;;1.90;;
32172;SDS011;18679;45.190;5.722;2022-07-10T06:31:15;2.63;;;1.80;;
32172;SDS011;18679;45.190;5.722;2022-07-10T06:34:16;2.83;;;1.65;;
32172;SDS011;18679;45.190;5.722;2022-07-10T06:37:18;4.07;;;1.90;;
32172;SDS011;18679;45.190;5.722;2022-07-10T06:40:20;5.57;;;1.95;;
32172;SDS011;18679;45.190;5.722;2022-07-10T06:43:22;3.05;;;1.60;;
32172;SDS011;18679;45.190;5.722;2022-07-10T06:46:23;5.93;;;1.35;;
32172;SDS011;18679;45.190;5.722;2022-07-10T06:49:24;7.03;;;1.73;;
32172;SDS011;18679;45.190;5.722;2022-07-10T06:52:25;4.15;;;1.65;;
32172;SDS011;18679;45.190;5.722;2022-07-10T06:55:26;6.80;;;1.60;;
32172;SDS011;18679;45.190;5.722;2022-07-10T06:58:28;2.30;;;1.52;;
32172;SDS011;18679;45.190;5.722;2022-07-10T07:01:29;3.65;;;1.48;;
32172;SDS011;18679;45.190;5.722;2022-07-10T07:04:30;7.50;;;1.70;;
32172;SDS011;18679;45.190;5.722;2022-07-10T07:07:31;4.20;;;1.35;;
32172;SDS011;18679;45.190;5.722;2022-07-10T07:10:32;2.17;;;1.48;;
32172;SDS011;18679;45.190;5.722;2022-07-10T07:13:33;4.47;;;1.90;;
32172;SDS011;18679;45.190;5.722;2022-07-10T07:16:34;3.47;;;1.60;;
32172;SDS011;18679;45.190;5.722;2022-07-10T07:19:41;5.57;;;1.90;;
32172;SDS011;18679;45.190;5.722;2022-07-10T07:23:01;2.85;;;1.48;;
32172;SDS011;18679;45.190;5.722;2022-07-10T07:26:11;2.72;;;1.65;;
32172;SDS011;18679;45.190;5.722;2022-07-10T07:29:14;8.15;;;1.45;;
32172;SDS011;18679;45.190;5.722;2022-07-10T07:32:16;6.90;;;1.70;;
32172;SDS011;18679;45.190;5.722;2022-07-10T07:35:17;3.63;;;1.67;;
32172;SDS011;18679;45.190;5.722;2022-07-10T07:38:18;4.20;;;1.38;;
32172;SDS011;18679;45.190;5.722;2022-07-10T07:41:19;5.57;;;1.70;;
32172;SDS011;18679;45.190;5.722;2022-07-10T07:44:20;4.07;;;1.42;;
32172;SDS011;18679;45.190;5.722;2022-07-10T07:47:21;5.50;;;1.40;;
32172;SDS011;18679;45.190;5.722;2022-07-10T07:50:26;12.20;;;1.67;;
32172;SDS011;18679;45.190;5.722;2022-07-10T07:53:29;1.83;;;1.27;;
32172;SDS011;18679;45.190;5.722;2022-07-10T07:56:30;6.60;;;1.80;;
32172;SDS011;18679;45.190;5.722;2022-07-10T07:59:31;2.90;;;1.30;;
32172;SDS011;18679;45.190;5.722;2022-07-10T08:02:32;3.97;;;1.40;;
32172;SDS011;18679;45.190;5.722;2022-07-10T08:05:34;5.68;;;1.70;;
32172;SDS011;18679;45.190;5.722;2022-07-10T08:08:35;29.33;;;2.00;;
32172;SDS011;18679;45.190;5.722;2022-07-10T08:11:36;2.53;;;1.52;;
32172;SDS011;18679;45.190;5.722;2022-07-10T08:14:38;2.30;;;1.17;;
32172;SDS011;18679;45.190;5.722;2022-07-10T08:17:39;2.67;;;1.48;;
32172;SDS011;18679;45.190;5.722;2022-07-10T08:20:40;3.88;;;1.70;;
32172;SDS011;18679;45.190;5.722;2022-07-10T08:23:41;5.65;;;1.70;;
32172;SDS011;18679;45.190;5.722;2022-07-10T08:26:43;2.28;;;1.33;;
32172;SDS011;18679;45.190;5.722;2022-07-10T08:29:44;6.07;;;1.63;;
32172;SDS011;18679;45.190;5.722;2022-07-10T08:32:45;1.45;;;1.33;;
32172;SDS011;18679;45.190;5.722;2022-07-10T08:35:46;2.13;;;1.50;;
32172;SDS011;18679;45.190;5.722;2022-07-10T08:38:47;3.40;;;1.45;;
32172;SDS011;18679;45.190;5.722;2022-07-10T08:41:50;4.38;;;1.40;;
32172;SDS011;18679;45.190;5.722;2022-07-10T08:48:03;3.92;;;1.48;;
32172;SDS011;18679;45.190;5.722;2022-07-10T08:51:09;7.30;;;1.60;;
32172;SDS011;18679;45.190;5.722;2022-07-10T08:54:16;5.05;;;1.33;;
32172;SDS011;18679;45.190;5.722;2022-07-10T08:57:18;3.63;;;1.50;;
32172;SDS011;18679;45.190;5.722;2022-07-10T09:00:20;1.70;;;1.13;;
32172;SDS011;18679;45.190;5.722;2022-07-10T09:03:21;1.60;;;1.38;;
32172;SDS011;18679;45.190;5.722;2022-07-10T09:06:23;2.35;;;1.33;;
32172;SDS011;18679;45.190;5.722;2022-07-10T09:09:32;3.10;;;1.30;;
32172;SDS011;18679;45.190;5.722;2022-07-10T09:13:00;1.83;;;1.20;;
32172;SDS011;18679;45.190;5.722;2022-07-10T09:16:03;4.00;;;1.30;;
32172;SDS011;18679;45.190;5.722;2022-07-10T09:19:26;3.55;;;1.50;;
32172;SDS011;18679;45.190;5.722;2022-07-10T09:22:29;5.50;;;1.15;;
32172;SDS011;18679;45.190;5.722;2022-07-10T09:25:35;3.03;;;1.50;;
32172;SDS011;18679;45.190;5.722;2022-07-10T09:28:36;1.35;;;1.25;;
32172;SDS011;18679;45.190;5.722;2022-07-10T09:31:57;2.30;;;1.20;;
32172;SDS011;18679;45.190;5.722;2022-07-10T09:35:02;2.80;;;1.45;;
32172;SDS011;18679;45.190;5.722;2022-07-10T09:38:25;4.40;;;1.70;;
32172;SDS011;18679;45.190;5.722;2022-07-10T09:41:30;1.20;;;1.10;;
32172;SDS011;18679;45.190;5.722;2022-07-10T09:44:32;1.88;;;1.25;;
32172;SDS011;18679;45.190;5.722;2022-07-10T09:47:33;2.55;;;1.40;;
32172;SDS011;18679;45.190;5.722;2022-07-10T09:50:35;3.80;;;1.42;;
32172;SDS011;18679;45.190;5.722;2022-07-10T09:53:40;2.70;;;1.30;;
32172;SDS011;18679;45.190;5.722;2022-07-10T09:56:44;8.57;;;1.98;;
32172;SDS011;18679;45.190;5.722;2022-07-10T09:59:51;2.78;;;1.42;;
32172;SDS011;18679;45.190;5.722;2022-07-10T10:02:57;6.03;;;1.67;;
32172;SDS011;18679;45.190;5.722;2022-07-10T10:06:10;3.35;;;1.30;;
32172;SDS011;18679;45.190;5.722;2022-07-10T10:09:29;6.70;;;1.63;;
32172;SDS011;18679;45.190;5.722;2022-07-10T10:12:46;2.08;;;1.70;;
32172;SDS011;18679;45.190;5.722;2022-07-10T10:15:51;3.35;;;1.35;;
32172;SDS011;18679;45.190;5.722;2022-07-10T10:18:52;2.70;;;1.38;;
32172;SDS011;18679;45.190;5.722;2022-07-10T10:22:14;1.98;;;1.30;;
32172;SDS011;18679;45.190;5.722;2022-07-10T10:25:18;1.20;;;1.00;;
32172;SDS011;18679;45.190;5.722;2022-07-10T10:28:19;1.95;;;1.17;;
32172;SDS011;18679;45.190;5.722;2022-07-10T10:31:24;3.97;;;1.30;;
32172;SDS011;18679;45.190;5.722;2022-07-10T10:35:00;3.03;;;1.30;;
32172;SDS011;18679;45.190;5.722;2022-07-10T10:37:57;5.07;;;1.42;;
32172;SDS011;18679;45.190;5.722;2022-07-10T10:41:21;4.22;;;1.13;;
32172;SDS011;18679;45.190;5.722;2022-07-10T10:44:26;4.13;;;1.45;;
32172;SDS011;18679;45.190;5.722;2022-07-10T10:47:56;1.65;;;1.30;;
32172;SDS011;18679;45.190;5.722;2022-07-10T10:51:04;3.42;;;1.30;;
32172;SDS011;18679;45.190;5.722;2022-07-10T10:54:05;3.88;;;1.30;;
32172;SDS011;18679;45.190;5.722;2022-07-10T10:57:13;2.30;;;1.33;;
32172;SDS011;18679;45.190;5.722;2022-07-10T11:00:29;2.17;;;1.25;;
32172;SDS011;18679;45.190;5.722;2022-07-10T11:03:33;1.33;;;1.13;;
32172;SDS011;18679;45.190;5.722;2022-07-10T11:06:41;1.63;;;1.23;;
32172;SDS011;18679;45.190;5.722;2022-07-10T11:09:42;2.67;;;1.30;;
32172;SDS011;18679;45.190;5.722;2022-07-10T11:13:02;1.63;;;1.08;;
32172;SDS011;18679;45.190;5.722;2022-07-10T11:16:13;1.60;;;1.20;;
32172;SDS011;18679;45.190;5.722;2022-07-10T11:19:18;1.27;;;1.15;;
32172;SDS011;18679;45.190;5.722;2022-07-10T11:22:27;1.98;;;1.20;;
32172;SDS011;18679;45.190;5.722;2022-07-10T11:25:38;5.57;;;1.15;;
32172;SDS011;18679;45.190;5.722;2022-07-10T11:29:03;1.10;;;1.00;;
32172;SDS011;18679;45.190;5.722;2022-07-10T11:32:07;5.57;;;1.30;;
32172;SDS011;18679;45.190;5.722;2022-07-10T11:35:12;1.90;;;1.30;;
32172;SDS011;18679;45.190;5.722;2022-07-10T11:38:18;4.25;;;1.23;;
32172;SDS011;18679;45.190;5.722;2022-07-10T11:41:23;3.70;;;1.38;;
32172;SDS011;18679;45.190;5.722;2022-07-10T11:44:24;3.05;;;1.20;;
32172;SDS011;18679;45.190;5.722;2022-07-10T11:47:27;3.80;;;1.33;;
32172;SDS011;18679;45.190;5.722;2022-07-10T11:50:36;3.00;;;1.10;;
32172;SDS011;18679;45.190;5.722;2022-07-10T11:53:39;1.00;;;1.00;;
32172;SDS011;18679;45.190;5.722;2022-07-10T11:56:40;3.88;;;1.40;;
32172;SDS011;18679;45.190;5.722;2022-07-10T11:59:43;1.48;;;1.13;;
32172;SDS011;18679;45.190;5.722;2022-07-10T12:02:44;3.70;;;1.25;;
32172;SDS011;18679;45.190;5.722;2022-07-10T12:05:45;2.10;;;1.38;;
32172;SDS011;18679;45.190;5.722;2022-07-10T12:08:47;3.03;;;1.48;;
32172;SDS011;18679;45.190;5.722;2022-07-10T12:15:03;4.43;;;1.40;;
32172;SDS011;18679;45.190;5.722;2022-07-10T12:18:05;2.25;;;1.48;;
32172;SDS011;18679;45.190;5.722;2022-07-10T12:21:16;4.00;;;1.30;;
32172;SDS011;18679;45.190;5.722;2022-07-10T12:24:18;1.77;;;1.10;;
32172;SDS011;18679;45.190;5.722;2022-07-10T12:27:39;1.20;;;1.10;;
32172;SDS011;18679;45.190;5.722;2022-07-10T12:30:42;4.10;;;1.17;;
32172;SDS011;18679;45.190;5.722;2022-07-10T12:33:49;2.65;;;1.27;;
32172;SDS011;18679;45.190;5.722;2022-07-10T12:36:53;5.78;;;1.30;;
32172;SDS011;18679;45.190;5.722;2022-07-10T12:39:54;4.53;;;1.20;;
32172;SDS011;18679;45.190;5.722;2022-07-10T12:43:03;2.20;;;1.20;;
32172;SDS011;18679;45.190;5.722;2022-07-10T12:46:13;16.17;;;1.55;;
32172;SDS011;18679;45.190;5.722;2022-07-10T12:49:15;1.45;;;1.20;;
32172;SDS011;18679;45.190;5.722;2022-07-10T12:55:35;2.83;;;1.20;;
32172;SDS011;18679;45.190;5.722;2022-07-10T12:58:43;1.13;;;0.90;;
32172;SDS011;18679;45.190;5.722;2022-07-10T13:01:45;4.30;;;1.10;;
32172;SDS011;18679;45.190;5.722;2022-07-10T13:04:56;3.72;;;1.10;;
32172;SDS011;18679;45.190;5.722;2022-07-10T13:11:21;2.85;;;1.40;;
32172;SDS011;18679;45.190;5.722;2022-07-10T13:14:23;5.80;;;1.20;;
32172;SDS011;18679;45.190;5.722;2022-07-10T13:17:24;4.63;;;1.10;;
32172;SDS011;18679;45.190;5.722;2022-07-10T13:20:26;1.63;;;1.30;;
32172;SDS011;18679;45.190;5.722;2022-07-10T13:23:27;4.15;;;1.23;;
32172;SDS011;18679;45.190;5.722;2022-07-10T13:26:29;1.75;;;1.30;;
32172;SDS011;18679;45.190;5.722;2022-07-10T13:29:32;4.68;;;1.70;;
32172;SDS011;18679;45.190;5.722;2022-07-10T13:32:33;2.75;;;1.45;;
32172;SDS011;18679;45.190;5.722;2022-07-10T13:35:34;1.70;;;1.35;;
32172;SDS011;18679;45.190;5.722;2022-07-10T13:38:36;5.50;;;1.20;;
32172;SDS011;18679;45.190;5.722;2022-07-10T13:41:38;3.15;;;1.15;;
32172;SDS011;18679;45.190;5.722;2022-07-10T13:44:39;0.95;;;0.95;;
32172;SDS011;18679;45.190;5.722;2022-07-10T13:47:40;1.35;;;1.20;;
32172;SDS011;18679;45.190;5.722;2022-07-10T13:50:42;3.15;;;1.17;;
32172;SDS011;18679;45.190;5.722;2022-07-10T13:53:46;0.95;;;0.95;;
32172;SDS011;18679;45.190;5.722;2022-07-10T13:56:49;1.23;;;1.10;;
32172;SDS011;18679;45.190;5.722;2022-07-10T13:59:56;1.85;;;1.05;;
32172;SDS011;18679;45.190;5.722;2022-07-10T14:03:01;4.03;;;1.17;;
32172;SDS011;18679;45.190;5.722;2022-07-10T14:06:04;3.67;;;1.20;;
32172;SDS011;18679;45.190;5.722;2022-07-10T14:09:13;5.25;;;1.08;;
32172;SDS011;18679;45.190;5.722;2022-07-10T14:12:21;4.53;;;1.35;;
32172;SDS011;18679;45.190;5.722;2022-07-10T14:15:22;1.63;;;1.13;;
32172;SDS011;18679;45.190;5.722;2022-07-10T14:18:23;2.25;;;0.98;;
32172;SDS011;18679;45.190;5.722;2022-07-10T14:21:42;4.15;;;1.42;;
32172;SDS011;18679;45.190;5.722;2022-07-10T14:24:45;1.20;;;1.00;;
32172;SDS011;18679;45.190;5.722;2022-07-10T14:27:52;2.80;;;1.27;;
32172;SDS011;18679;45.190;5.722;2022-07-10T14:30:57;2.53;;;1.37;;
32172;SDS011;18679;45.190;5.722;2022-07-10T14:34:00;2.80;;;1.10;;
32172;SDS011;18679;45.190;5.722;2022-07-10T14:37:02;1.20;;;1.10;;
32172;SDS011;18679;45.190;5.722;2022-07-10T14:40:03;2.70;;;1.30;;
32172;SDS011;18679;45.190;5.722;2022-07-10T14:43:05;1.63;;;1.10;;
32172;SDS011;18679;45.190;5.722;2022-07-10T14:46:06;2.60;;;1.17;;
32172;SDS011;18679;45.190;5.722;2022-07-10T14:49:07;3.67;;;1.10;;
32172;SDS011;18679;45.190;5.722;2022-07-10T14:52:09;1.00;;;0.90;;
32172;SDS011;18679;45.190;5.722;2022-07-10T14:55:10;1.88;;;1.40;;
32172;SDS011;18679;45.190;5.722;2022-07-10T14:58:11;2.03;;;1.33;;
32172;SDS011;18679;45.190;5.722;2022-07-10T15:01:13;6.43;;;2.20;;
32172;SDS011;18679;45.190;5.722;2022-07-10T15:04:16;1.50;;;1.10;;
32172;SDS011;18679;45.190;5.722;2022-07-10T15:07:17;2.50;;;1.20;;
32172;SDS011;18679;45.190;5.722;2022-07-10T15:10:18;2.17;;;1.30;;
32172;SDS011;18679;45.190;5.722;2022-07-10T15:13:20;1.20;;;1.10;;
32172;SDS011;18679;45.190;5.722;2022-07-10T15:16:21;1.65;;;0.90;;
32172;SDS011;18679;45.190;5.722;2022-07-10T15:19:22;1.50;;;1.05;;
32172;SDS011;18679;45.190;5.722;2022-07-10T15:22:23;2.40;;;0.95;;
32172;SDS011;18679;45.190;5.722;2022-07-10T15:25:24;2.10;;;1.42;;
32172;SDS011;18679;45.190;5.722;2022-07-10T15:28:26;1.80;;;1.38;;
32172;SDS011;18679;45.190;5.722;2022-07-10T15:31:27;1.13;;;1.02;;
32172;SDS011;18679;45.190;5.722;2022-07-10T15:34:28;4.50;;;1.13;;
32172;SDS011;18679;45.190;5.722;2022-07-10T15:37:29;1.17;;;0.90;;
32172;SDS011;18679;45.190;5.722;2022-07-10T15:40:30;2.65;;;1.58;;
32172;SDS011;18679;45.190;5.722;2022-07-10T15:43:32;2.58;;;1.60;;
32172;SDS011;18679;45.190;5.722;2022-07-10T15:46:33;1.65;;;1.10;;
32172;SDS011;18679;45.190;5.722;2022-07-10T15:49:34;3.10;;;1.40;;
32172;SDS011;18679;45.190;5.722;2022-07-10T15:52:37;1.85;;;1.23;;
32172;SDS011;18679;45.190;5.722;2022-07-10T15:55:38;2.25;;;1.25;;
32172;SDS011;18679;45.190;5.722;2022-07-10T15:58:39;1.20;;;1.10;;
32172;SDS011;18679;45.190;5.722;2022-07-10T16:01:42;1.40;;;1.30;;
32172;SDS011;18679;45.190;5.722;2022-07-10T16:04:43;5.00;;;1.45;;
32172;SDS011;18679;45.190;5.722;2022-07-10T16:07:44;2.80;;;1.20;;
32172;SDS011;18679;45.190;5.722;2022-07-10T16:10:46;2.90;;;1.20;;
32172;SDS011;18679;45.190;5.722;2022-07-10T16:13:48;2.35;;;1.45;;
32172;SDS011;18679;45.190;5.722;2022-07-10T16:16:49;1.10;;;1.00;;
32172;SDS011;18679;45.190;5.722;2022-07-10T16:19:51;3.05;;;1.25;;
32172;SDS011;18679;45.190;5.722;2022-07-10T16:22:52;2.47;;;1.48;;
32172;SDS011;18679;45.190;5.722;2022-07-10T16:25:53;3.67;;;1.40;;
32172;SDS011;18679;45.190;5.722;2022-07-10T16:28:57;12.35;;;1.50;;
32172;SDS011;18679;45.190;5.722;2022-07-10T16:31:59;1.48;;;1.38;;
32172;SDS011;18679;45.190;5.722;2022-07-10T16:35:00;3.40;;;1.45;;
32172;SDS011;18679;45.190;5.722;2022-07-10T16:38:01;3.05;;;1.38;;
32172;SDS011;18679;45.190;5.722;2022-07-10T16:41:02;1.67;;;1.30;;
32172;SDS011;18679;45.190;5.722;2022-07-10T16:44:03;2.95;;;1.48;;
32172;SDS011;18679;45.190;5.722;2022-07-10T16:47:05;1.98;;;1.50;;
32172;SDS011;18679;45.190;5.722;2022-07-10T16:50:06;1.73;;;1.40;;
32172;SDS011;18679;45.190;5.722;2022-07-10T16:53:08;6.50;;;1.60;;
32172;SDS011;18679;45.190;5.722;2022-07-10T16:56:09;1.42;;;1.33;;
32172;SDS011;18679;45.190;5.722;2022-07-10T16:59:11;5.55;;;1.60;;
32172;SDS011;18679;45.190;5.722;2022-07-10T17:02:12;2.30;;;1.40;;
32172;SDS011;18679;45.190;5.722;2022-07-10T17:05:13;5.80;;;1.63;;
32172;SDS011;18679;45.190;5.722;2022-07-10T17:08:15;7.40;;;1.60;;
32172;SDS011;18679;45.190;5.722;2022-07-10T17:11:16;3.47;;;2.13;;
32172;SDS011;18679;45.190;5.722;2022-07-10T17:14:17;3.42;;;1.65;;
32172;SDS011;18679;45.190;5.722;2022-07-10T17:17:18;6.35;;;1.98;;
32172;SDS011;18679;45.190;5.722;2022-07-10T17:20:19;2.58;;;1.77;;
32172;SDS011;18679;45.190;5.722;2022-07-10T17:23:21;5.05;;;1.70;;
32172;SDS011;18679;45.190;5.722;2022-07-10T17:26:22;2.88;;;1.35;;
32172;SDS011;18679;45.190;5.722;2022-07-10T17:29:23;7.82;;;1.55;;
32172;SDS011;18679;45.190;5.722;2022-07-10T17:32:24;3.38;;;1.80;;
32172;SDS011;18679;45.190;5.722;2022-07-10T17:35:26;4.68;;;1.52;;
32172;SDS011;18679;45.190;5.722;2022-07-10T17:38:27;5.13;;;2.00;;
32172;SDS011;18679;45.190;5.722;2022-07-10T17:41:29;2.22;;;1.67;;
32172;SDS011;18679;45.190;5.722;2022-07-10T17:44:30;2.30;;;1.58;;
32172;SDS011;18679;45.190;5.722;2022-07-10T17:47:31;2.55;;;1.75;;
32172;SDS011;18679;45.190;5.722;2022-07-10T17:50:32;2.47;;;1.70;;
32172;SDS011;18679;45.190;5.722;2022-07-10T17:53:33;8.15;;;1.70;;
32172;SDS011;18679;45.190;5.722;2022-07-10T17:56:34;2.15;;;1.80;;
32172;SDS011;18679;45.190;5.722;2022-07-10T17:59:35;1.67;;;1.48;;
32172;SDS011;18679;45.190;5.722;2022-07-10T18:02:36;4.05;;;1.45;;
32172;SDS011;18679;45.190;5.722;2022-07-10T18:05:37;2.60;;;1.50;;
32172;SDS011;18679;45.190;5.722;2022-07-10T18:08:38;1.98;;;1.75;;
32172;SDS011;18679;45.190;5.722;2022-07-10T18:11:44;2.65;;;1.65;;
32172;SDS011;18679;45.190;5.722;2022-07-10T18:14:45;2.22;;;1.60;;
32172;SDS011;18679;45.190;5.722;2022-07-10T18:17:46;4.80;;;1.85;;
32172;SDS011;18679;45.190;5.722;2022-07-10T18:20:49;3.15;;;1.88;;
32172;SDS011;18679;45.190;5.722;2022-07-10T18:23:50;2.70;;;1.45;;
32172;SDS011;18679;45.190;5.722;2022-07-10T18:26:52;2.25;;;1.52;;
32172;SDS011;18679;45.190;5.722;2022-07-10T18:29:53;6.38;;;1.40;;
32172;SDS011;18679;45.190;5.722;2022-07-10T18:32:54;4.63;;;1.70;;
32172;SDS011;18679;45.190;5.722;2022-07-10T18:36:14;4.18;;;1.67;;